Bookmark and Share
Track history (hours):
 

Orenge 7

Last reported at 2014-Apr-23 15:06 UTC. Time now 2014-Apr-24 11:09 UTC.
Position N 34°33' E 134°46'.

Length 163 m; draft 4.9 m.

Type: Passenger vessel. MMSI: 431500186.

NotesDate/timePositionNaut miles runAvg speedWind from/ knotsBaromVisibWave heightAir tempDewpointWater temp
2014-Apr-23 15:06N 34°33' E 134°46'1018.3
2014-Apr-23 14:33N 34°37' E 134°57'1717.3
2014-Apr-23 13:33N 34°37' E 135°18'7 6.5
2014-Apr-23 12:32N 34°37' E 135°26'0 0.0
2014-Apr-23 11:32N 34°37' E 135°26'0 0.0
2014-Apr-23 10:26N 34°37' E 135°26'0 0.0
2014-Apr-23 09:32N 34°37' E 135°26'0 0.0
2014-Apr-23 08:08N 34°37' E 135°26'0 0.0
2014-Apr-23 07:32N 34°37' E 135°26'0 0.0
2014-Apr-23 06:26N 34°37' E 135°26'0 0.0
2014-Apr-23 05:26N 34°37' E 135°26'0 0.0
2014-Apr-23 04:32N 34°37' E 135°26'0 0.0
2014-Apr-23 03:32N 34°37' E 135°26'0 0.0
2014-Apr-23 02:32N 34°37' E 135°26'0 0.0
2014-Apr-23 01:32N 34°37' E 135°26'0 0.0
2014-Apr-23 00:32N 34°37' E 135°26'0 0.0
2014-Apr-22 23:26N 34°37' E 135°26'0 0.0
2014-Apr-22 22:32N 34°37' E 135°26'0 0.0
2014-Apr-22 21:32N 34°37' E 135°26'6 6.5
2014-Apr-22 20:33N 34°36' E 135°18'1818.0
2014-Apr-22 19:33N 34°36' E 134°56'1 0.0
2014-Apr-21 14:33N 34°37' E 134°56'1818.2
2014-Apr-21 13:33N 34°37' E 135°18'7 5.8
2014-Apr-21 12:25N 34°37' E 135°26'0 0.0
2014-Apr-21 11:31N 34°37' E 135°26'0 0.0
2014-Apr-21 10:13N 34°37' E 135°26'0 0.0
2014-Apr-21 09:31N 34°37' E 135°26'0 0.0
2014-Apr-21 08:25N 34°37' E 135°26'0 0.0
2014-Apr-21 07:31N 34°37' E 135°26'0 0.0
2014-Apr-21 06:31N 34°37' E 135°26'0 0.0
2014-Apr-21 05:31N 34°37' E 135°26'0 0.0
2014-Apr-21 04:31N 34°37' E 135°26'0 0.0
2014-Apr-21 03:31N 34°37' E 135°26'0 0.0
2014-Apr-21 02:25N 34°37' E 135°26'0 0.0
2014-Apr-21 01:25N 34°37' E 135°26'0 0.0
2014-Apr-21 00:31N 34°37' E 135°26'0 0.0
2014-Apr-20 23:25N 34°37' E 135°26'0 0.0
2014-Apr-20 22:31N 34°37' E 135°26'0 0.0
2014-Apr-20 21:31N 34°37' E 135°26'6 6.1
2014-Apr-20 20:33N 34°36' E 135°19'1817.8
2014-Apr-20 19:33N 34°36' E 134°57'2 0.1
2014-Apr-19 14:33N 34°36' E 134°55'1919.1
2014-Apr-19 13:33N 34°36' E 135°18'7 6.6
2014-Apr-19 12:33N 34°37' E 135°26'0 0.0
2014-Apr-19 11:33N 34°37' E 135°26'0 0.0
2014-Apr-19 10:33N 34°37' E 135°26'0 0.0
2014-Apr-19 09:33N 34°37' E 135°26'0 0.0
2014-Apr-19 08:33N 34°37' E 135°26'0 0.0
2014-Apr-19 07:33N 34°37' E 135°26'0 0.0
2014-Apr-19 06:33N 34°37' E 135°26'0 0.0
2014-Apr-19 05:33N 34°37' E 135°26'0 0.0
2014-Apr-19 04:09N 34°37' E 135°26'0 0.0
2014-Apr-19 03:27N 34°37' E 135°26'0 0.0
2014-Apr-19 02:33N 34°37' E 135°26'0 0.0
2014-Apr-19 01:33N 34°37' E 135°26'0 0.0
2014-Apr-19 00:27N 34°37' E 135°26'0 0.0
2014-Apr-18 23:33N 34°37' E 135°26'0 0.0
2014-Apr-18 22:33N 34°37' E 135°26'0 0.0
2014-Apr-18 21:27N 34°37' E 135°26'6 6.9
2014-Apr-18 20:33N 34°36' E 135°19'1818.2
2014-Apr-18 19:33N 34°36' E 134°56'1 0.0
2014-Apr-17 14:32N 34°37' E 134°56'1818.6
2014-Apr-17 13:33N 34°37' E 135°18'6 5.3
2014-Apr-17 12:25N 34°37' E 135°26'0 0.0
2014-Apr-17 10:31N 34°37' E 135°26'0 0.0
2014-Apr-17 09:07N 34°37' E 135°26'0 0.0
2014-Apr-17 08:31N 34°37' E 135°26'0 0.0
2014-Apr-17 07:13N 34°37' E 135°26'0 0.0
2014-Apr-17 06:31N 34°37' E 135°26'0 0.0
2014-Apr-17 05:31N 34°37' E 135°26'0 0.0
2014-Apr-17 04:25N 34°37' E 135°26'0 0.0
2014-Apr-17 03:31N 34°37' E 135°26'0 0.0
2014-Apr-17 02:31N 34°37' E 135°26'0 0.0
2014-Apr-17 01:31N 34°37' E 135°26'0 0.0
2014-Apr-17 00:31N 34°37' E 135°26'0 0.0
2014-Apr-16 22:13N 34°37' E 135°26'0 0.0
2014-Apr-16 21:31N 34°37' E 135°26'6 6.0
2014-Apr-16 20:33N 34°36' E 135°19'1717.5
2014-Apr-16 19:33N 34°37' E 134°58'15 0.5
2014-Apr-15 15:19N 34°31' E 134°40'1519.5
2014-Apr-15 14:33N 34°37' E 134°57'18 9.0
2014-Apr-15 12:34N 34°37' E 135°18'1 0.0
2014-Apr-14 19:33N 34°36' E 135°18'1818.1
2014-Apr-14 18:34N 34°36' E 134°57'12 0.4
2014-Apr-13 15:10N 34°33' E 134°43'  

Dump ship's entire track history

sailing weather and tide predictions

Orenge 7 — JL6148 — position and weather